sensor_id;sensor_type;location;lat;lon;timestamp;pressure;altitude;pressure_sealevel;temperature;humidity
45327;BME280;31062;49.678;24.560;2022-12-07T00:02:15;97610.47;;;-0.41;87.95
45327;BME280;31062;49.678;24.560;2022-12-07T00:05:01;97777.38;;;0.66;87.53
45327;BME280;31062;49.678;24.560;2022-12-07T00:07:47;97727.03;;;0.35;87.56
45327;BME280;31062;49.678;24.560;2022-12-07T00:10:35;97733.81;;;0.48;88.02
45327;BME280;31062;49.678;24.560;2022-12-07T00:13:21;97772.41;;;0.52;87.67
45327;BME280;31062;49.678;24.560;2022-12-07T00:16:12;97713.63;;;0.37;88.20
45327;BME280;31062;49.678;24.560;2022-12-07T00:18:58;97739.59;;;0.57;87.67
45327;BME280;31062;49.678;24.560;2022-12-07T00:21:44;97576.03;;;-0.57;87.50
45327;BME280;31062;49.678;24.560;2022-12-07T00:24:29;97651.59;;;-0.07;87.55
45327;BME280;31062;49.678;24.560;2022-12-07T00:27:15;97723.91;;;0.45;88.03
45327;BME280;31062;49.678;24.560;2022-12-07T00:30:00;97755.41;;;0.46;88.11
45327;BME280;31062;49.678;24.560;2022-12-07T00:32:47;97784.28;;;0.86;88.19
45327;BME280;31062;49.678;24.560;2022-12-07T00:35:32;97790.47;;;0.87;88.05
45327;BME280;31062;49.678;24.560;2022-12-07T00:38:18;97735.72;;;0.53;88.46
45327;BME280;31062;49.678;24.560;2022-12-07T00:41:06;97760.28;;;0.66;88.14
45327;BME280;31062;49.678;24.560;2022-12-07T00:43:52;97786.16;;;0.91;87.89
45327;BME280;31062;49.678;24.560;2022-12-07T00:46:38;97808.59;;;0.84;87.71
45327;BME280;31062;49.678;24.560;2022-12-07T00:49:24;97786.78;;;0.84;87.62
45327;BME280;31062;49.678;24.560;2022-12-07T00:52:09;97575.75;;;-0.54;87.86
45327;BME280;31062;49.678;24.560;2022-12-07T00:54:55;97802.63;;;0.86;88.04
45327;BME280;31062;49.678;24.560;2022-12-07T00:57:40;97624.94;;;-0.14;87.93
45327;BME280;31062;49.678;24.560;2022-12-07T01:00:26;97710.06;;;0.43;87.56
45327;BME280;31062;49.678;24.560;2022-12-07T01:03:13;97670.34;;;0.15;87.92
45327;BME280;31062;49.678;24.560;2022-12-07T01:06:00;97729.06;;;0.48;87.87
45327;BME280;31062;49.678;24.560;2022-12-07T01:08:45;97781.88;;;0.96;88.17
45327;BME280;31062;49.678;24.560;2022-12-07T01:11:31;97596.75;;;-0.35;87.80
45327;BME280;31062;49.678;24.560;2022-12-07T01:14:16;97753.59;;;0.80;88.31
45327;BME280;31062;49.678;24.560;2022-12-07T01:17:02;97759.66;;;0.73;88.12
45327;BME280;31062;49.678;24.560;2022-12-07T01:19:47;97776.81;;;0.87;88.27
45327;BME280;31062;49.678;24.560;2022-12-07T01:27:23;97743.97;;;0.47;88.09
45327;BME280;31062;49.678;24.560;2022-12-07T01:30:10;97670.09;;;0.00;87.97
45327;BME280;31062;49.678;24.560;2022-12-07T01:32:56;97682.84;;;0.24;88.58
45327;BME280;31062;49.678;24.560;2022-12-07T01:35:41;97777.78;;;0.89;88.14
45327;BME280;31062;49.678;24.560;2022-12-07T01:38:27;97736.56;;;0.61;87.91
45327;BME280;31062;49.678;24.560;2022-12-07T01:41:13;97732.16;;;0.58;87.69
45327;BME280;31062;49.678;24.560;2022-12-07T01:44:23;97767.91;;;0.86;88.55
45327;BME280;31062;49.678;24.560;2022-12-07T01:47:10;97750.41;;;0.63;88.57
45327;BME280;31062;49.678;24.560;2022-12-07T01:49:56;97701.41;;;0.25;88.34
45327;BME280;31062;49.678;24.560;2022-12-07T01:52:42;97711.72;;;0.32;88.16
45327;BME280;31062;49.678;24.560;2022-12-07T01:55:29;97611.91;;;-0.21;88.18
45327;BME280;31062;49.678;24.560;2022-12-07T01:58:16;97745.59;;;0.69;88.10
45327;BME280;31062;49.678;24.560;2022-12-07T02:01:01;97561.31;;;-0.49;88.13
45327;BME280;31062;49.678;24.560;2022-12-07T02:03:47;97704.66;;;0.56;88.65
45327;BME280;31062;49.678;24.560;2022-12-07T02:06:35;97711.44;;;0.49;88.72
45327;BME280;31062;49.678;24.560;2022-12-07T02:09:20;97719.75;;;0.57;88.18
45327;BME280;31062;49.678;24.560;2022-12-07T02:12:06;97686.28;;;0.56;88.62
45327;BME280;31062;49.678;24.560;2022-12-07T02:14:51;97523.81;;;-0.56;88.12
45327;BME280;31062;49.678;24.560;2022-12-07T02:21:02;97662.22;;;0.28;88.66
45327;BME280;31062;49.678;24.560;2022-12-07T02:30:14;97739.13;;;0.85;88.47
45327;BME280;31062;49.678;24.560;2022-12-07T02:33:05;97718.97;;;0.75;88.59
45327;BME280;31062;49.678;24.560;2022-12-07T02:36:04;97729.66;;;0.73;88.66
45327;BME280;31062;49.678;24.560;2022-12-07T02:39:05;97764.94;;;0.84;88.95
45327;BME280;31062;49.678;24.560;2022-12-07T02:42:00;97722.53;;;0.70;88.97
45327;BME280;31062;49.678;24.560;2022-12-07T02:44:48;97767.69;;;0.84;89.06
45327;BME280;31062;49.678;24.560;2022-12-07T02:47:34;97701.63;;;0.59;88.81
45327;BME280;31062;49.678;24.560;2022-12-07T02:50:21;97741.66;;;0.83;88.74
45327;BME280;31062;49.678;24.560;2022-12-07T02:53:34;97700.91;;;0.59;88.56
45327;BME280;31062;49.678;24.560;2022-12-07T03:03:00;97752.25;;;0.87;88.39
45327;BME280;31062;49.678;24.560;2022-12-07T03:06:07;97731.69;;;0.86;87.97
45327;BME280;31062;49.678;24.560;2022-12-07T03:12:18;97533.97;;;-0.56;88.90
45327;BME280;31062;49.678;24.560;2022-12-07T03:15:12;97674.41;;;0.40;88.54
45327;BME280;31062;49.678;24.560;2022-12-07T03:18:01;97759.50;;;0.84;88.93
45327;BME280;31062;49.678;24.560;2022-12-07T03:20:50;97582.59;;;-0.15;88.69
45327;BME280;31062;49.678;24.560;2022-12-07T03:23:39;97682.31;;;0.57;88.67
45327;BME280;31062;49.678;24.560;2022-12-07T03:26:38;97722.03;;;0.71;88.36
45327;BME280;31062;49.678;24.560;2022-12-07T03:29:30;97637.59;;;0.34;88.00
45327;BME280;31062;49.678;24.560;2022-12-07T03:32:31;97538.78;;;-0.30;88.33
45327;BME280;31062;49.678;24.560;2022-12-07T03:35:22;97753.44;;;1.04;87.88
45327;BME280;31062;49.678;24.560;2022-12-07T03:38:33;97677.59;;;0.58;87.81
45327;BME280;31062;49.678;24.560;2022-12-07T03:44:07;97614.78;;;0.18;88.30
45327;BME280;31062;49.678;24.560;2022-12-07T03:47:13;97732.25;;;1.10;87.76
45327;BME280;31062;49.678;24.560;2022-12-07T03:50:11;97609.16;;;0.29;87.91
45327;BME280;31062;49.678;24.560;2022-12-07T03:53:10;97691.59;;;0.80;88.02
45327;BME280;31062;49.678;24.560;2022-12-07T03:55:57;97732.16;;;1.16;87.93
45327;BME280;31062;49.678;24.560;2022-12-07T03:58:43;97556.66;;;-0.03;87.71
45327;BME280;31062;49.678;24.560;2022-12-07T04:01:29;97730.16;;;1.16;87.55
45327;BME280;31062;49.678;24.560;2022-12-07T04:04:15;97682.44;;;0.65;87.60
45327;BME280;31062;49.678;24.560;2022-12-07T04:07:00;97588.56;;;0.15;87.71
45327;BME280;31062;49.678;24.560;2022-12-07T04:09:45;97732.66;;;1.14;87.46
45327;BME280;31062;49.678;24.560;2022-12-07T04:12:31;97684.34;;;0.70;87.28
45327;BME280;31062;49.678;24.560;2022-12-07T04:15:16;97717.97;;;1.04;87.03
45327;BME280;31062;49.678;24.560;2022-12-07T04:18:02;97732.47;;;1.26;87.05
45327;BME280;31062;49.678;24.560;2022-12-07T04:20:47;97758.72;;;1.29;86.98
45327;BME280;31062;49.678;24.560;2022-12-07T04:23:36;97685.94;;;1.05;86.69
45327;BME280;31062;49.678;24.560;2022-12-07T04:26:22;97710.41;;;0.97;86.70
45327;BME280;31062;49.678;24.560;2022-12-07T04:29:10;97732.16;;;1.29;86.87
45327;BME280;31062;49.678;24.560;2022-12-07T04:31:56;97742.34;;;1.29;86.73
45327;BME280;31062;49.678;24.560;2022-12-07T04:34:43;97759.56;;;1.23;86.64
45327;BME280;31062;49.678;24.560;2022-12-07T04:37:29;97691.72;;;1.01;86.72
45327;BME280;31062;49.678;24.560;2022-12-07T04:40:16;97720.78;;;0.99;86.64
45327;BME280;31062;49.678;24.560;2022-12-07T04:43:02;97728.06;;;1.22;86.64
45327;BME280;31062;49.678;24.560;2022-12-07T04:45:47;97732.69;;;1.01;86.49
45327;BME280;31062;49.678;24.560;2022-12-07T04:48:33;97558.56;;;0.02;86.47
45327;BME280;31062;49.678;24.560;2022-12-07T04:51:24;97703.03;;;0.79;86.33
45327;BME280;31062;49.678;24.560;2022-12-07T04:54:12;97731.00;;;1.25;86.45
45327;BME280;31062;49.678;24.560;2022-12-07T04:56:57;97596.53;;;0.13;86.71
45327;BME280;31062;49.678;24.560;2022-12-07T04:59:43;97743.81;;;1.16;86.25
45327;BME280;31062;49.678;24.560;2022-12-07T05:02:30;97701.19;;;1.00;86.28
45327;BME280;31062;49.678;24.560;2022-12-07T05:05:15;97737.28;;;1.33;86.24
45327;BME280;31062;49.678;24.560;2022-12-07T05:08:00;97561.31;;;0.15;86.39
45327;BME280;31062;49.678;24.560;2022-12-07T05:10:49;97729.94;;;1.28;85.56
45327;BME280;31062;49.678;24.560;2022-12-07T05:13:35;97714.41;;;1.09;85.95
45327;BME280;31062;49.678;24.560;2022-12-07T05:16:21;97686.88;;;0.94;86.22
45327;BME280;31062;49.678;24.560;2022-12-07T05:19:07;97758.72;;;1.29;85.76
45327;BME280;31062;49.678;24.560;2022-12-07T05:21:52;97569.25;;;0.13;85.61
45327;BME280;31062;49.678;24.560;2022-12-07T05:24:38;97508.59;;;-0.32;85.94
45327;BME280;31062;49.678;24.560;2022-12-07T05:27:23;97564.41;;;0.06;85.55
45327;BME280;31062;49.678;24.560;2022-12-07T05:30:09;97725.31;;;1.09;86.00
45327;BME280;31062;49.678;24.560;2022-12-07T05:32:55;97688.31;;;0.69;86.33
45327;BME280;31062;49.678;24.560;2022-12-07T05:35:40;97721.53;;;0.99;86.07
45327;BME280;31062;49.678;24.560;2022-12-07T05:38:26;97742.94;;;0.95;86.10
45327;BME280;31062;49.678;24.560;2022-12-07T05:41:16;97721.41;;;0.92;86.07
45327;BME280;31062;49.678;24.560;2022-12-07T05:44:21;97687.25;;;0.72;86.59
45327;BME280;31062;49.678;24.560;2022-12-07T05:47:06;97709.63;;;0.83;86.65
45327;BME280;31062;49.678;24.560;2022-12-07T05:49:52;97563.88;;;-0.06;86.85
45327;BME280;31062;49.678;24.560;2022-12-07T05:52:37;97719.31;;;0.98;87.11
45327;BME280;31062;49.678;24.560;2022-12-07T05:55:24;97531.63;;;-0.33;86.93
45327;BME280;31062;49.678;24.560;2022-12-07T05:58:09;97667.09;;;0.62;87.11
45327;BME280;31062;49.678;24.560;2022-12-07T06:01:21;97668.16;;;0.59;87.38
45327;BME280;31062;49.678;24.560;2022-12-07T06:04:06;97686.84;;;0.68;87.33
45327;BME280;31062;49.678;24.560;2022-12-07T06:06:52;97680.72;;;0.49;87.13
45327;BME280;31062;49.678;24.560;2022-12-07T06:09:37;97678.13;;;0.69;86.92
45327;BME280;31062;49.678;24.560;2022-12-07T06:12:23;97532.28;;;-0.27;87.48
45327;BME280;31062;49.678;24.560;2022-12-07T06:15:20;97739.78;;;0.91;87.52
45327;BME280;31062;49.678;24.560;2022-12-07T06:18:08;97639.34;;;0.31;87.50
45327;BME280;31062;49.678;24.560;2022-12-07T06:20:55;97688.31;;;0.69;87.73
45327;BME280;31062;49.678;24.560;2022-12-07T06:28:19;97715.34;;;0.99;87.44
45327;BME280;31062;49.678;24.560;2022-12-07T06:31:04;97704.09;;;0.89;87.21
45327;BME280;31062;49.678;24.560;2022-12-07T06:34:00;97664.59;;;0.64;87.53
45327;BME280;31062;49.678;24.560;2022-12-07T06:36:46;97711.66;;;0.96;87.59
45327;BME280;31062;49.678;24.560;2022-12-07T06:39:37;97661.84;;;0.51;87.42
45327;BME280;31062;49.678;24.560;2022-12-07T06:42:24;97654.44;;;0.64;87.46
45327;BME280;31062;49.678;24.560;2022-12-07T06:45:09;97531.34;;;-0.17;87.17
45327;BME280;31062;49.678;24.560;2022-12-07T06:47:55;97677.00;;;0.65;87.76
45327;BME280;31062;49.678;24.560;2022-12-07T06:50:41;97720.91;;;1.06;87.80
45327;BME280;31062;49.678;24.560;2022-12-07T06:53:27;97711.66;;;0.96;87.39
45327;BME280;31062;49.678;24.560;2022-12-07T06:56:13;97746.94;;;1.07;87.50
45327;BME280;31062;49.678;24.560;2022-12-07T06:58:59;97696.94;;;0.86;87.61
45327;BME280;31062;49.678;24.560;2022-12-07T07:01:45;97534.63;;;-0.18;87.48
45327;BME280;31062;49.678;24.560;2022-12-07T07:04:31;97529.78;;;-0.25;87.37
45327;BME280;31062;49.678;24.560;2022-12-07T07:07:17;97726.78;;;1.10;87.67
45327;BME280;31062;49.678;24.560;2022-12-07T07:10:03;97633.50;;;0.54;87.03
45327;BME280;31062;49.678;24.560;2022-12-07T07:12:49;97669.03;;;0.80;87.12
45327;BME280;31062;49.678;24.560;2022-12-07T07:15:46;97734.56;;;1.19;87.34
45327;BME280;31062;49.678;24.560;2022-12-07T07:18:32;97652.53;;;0.59;87.05
45327;BME280;31062;49.678;24.560;2022-12-07T07:21:19;97717.88;;;1.23;86.97
45327;BME280;31062;49.678;24.560;2022-12-07T07:24:05;97717.75;;;1.15;86.91
45327;BME280;31062;49.678;24.560;2022-12-07T07:26:50;97692.97;;;0.87;86.58
45327;BME280;31062;49.678;24.560;2022-12-07T07:29:37;97536.09;;;-0.04;87.05
45327;BME280;31062;49.678;24.560;2022-12-07T07:32:22;97692.56;;;0.83;87.01
45327;BME280;31062;49.678;24.560;2022-12-07T07:35:17;97693.19;;;1.02;86.69
45327;BME280;31062;49.678;24.560;2022-12-07T07:38:08;97695.50;;;1.11;86.94
45327;BME280;31062;49.678;24.560;2022-12-07T07:40:53;97585.69;;;0.39;86.63
45327;BME280;31062;49.678;24.560;2022-12-07T07:43:39;97704.09;;;1.02;86.50
45327;BME280;31062;49.678;24.560;2022-12-07T07:46:24;97674.69;;;1.08;86.62
45327;BME280;31062;49.678;24.560;2022-12-07T07:49:10;97730.19;;;1.43;86.88
45327;BME280;31062;49.678;24.560;2022-12-07T07:51:56;97552.69;;;-0.02;86.28
45327;BME280;31062;49.678;24.560;2022-12-07T07:54:42;97715.16;;;1.36;86.04
45327;BME280;31062;49.678;24.560;2022-12-07T07:57:27;97692.44;;;1.02;86.07
45327;BME280;31062;49.678;24.560;2022-12-07T08:00:14;97691.31;;;1.10;86.50
45327;BME280;31062;49.678;24.560;2022-12-07T08:03:00;97696.97;;;1.12;86.28
45327;BME280;31062;49.678;24.560;2022-12-07T08:05:46;97737.94;;;1.39;86.32
45327;BME280;31062;49.678;24.560;2022-12-07T08:08:31;97688.16;;;1.06;86.05
45327;BME280;31062;49.678;24.560;2022-12-07T08:11:18;97700.34;;;1.18;86.39
45327;BME280;31062;49.678;24.560;2022-12-07T08:14:04;97713.78;;;1.30;86.34
45327;BME280;31062;49.678;24.560;2022-12-07T08:16:49;97751.19;;;1.35;86.53
45327;BME280;31062;49.678;24.560;2022-12-07T08:19:35;97689.81;;;1.09;86.71
45327;BME280;31062;49.678;24.560;2022-12-07T08:22:21;97696.75;;;1.10;86.62
45327;BME280;31062;49.678;24.560;2022-12-07T08:25:07;97627.88;;;0.65;86.63
45327;BME280;31062;49.678;24.560;2022-12-07T08:27:53;97715.78;;;1.29;86.42
45327;BME280;31062;49.678;24.560;2022-12-07T08:30:38;97737.09;;;1.44;86.58
45327;BME280;31062;49.678;24.560;2022-12-07T08:33:24;97574.56;;;0.37;85.88
45327;BME280;31062;49.678;24.560;2022-12-07T08:36:11;97749.81;;;1.41;86.04
45327;BME280;31062;49.678;24.560;2022-12-07T08:38:57;97570.88;;;0.22;86.02
45327;BME280;31062;49.678;24.560;2022-12-07T08:42:02;97664.84;;;1.05;85.83
45327;BME280;31062;49.678;24.560;2022-12-07T08:44:48;97701.16;;;1.27;86.30
45327;BME280;31062;49.678;24.560;2022-12-07T08:47:36;97700.66;;;1.28;86.30
45327;BME280;31062;49.678;24.560;2022-12-07T08:50:23;97740.25;;;1.35;86.32
45327;BME280;31062;49.678;24.560;2022-12-07T08:53:09;97650.78;;;0.88;86.22
45327;BME280;31062;49.678;24.560;2022-12-07T08:55:56;97535.91;;;0.07;85.74
45327;BME280;31062;49.678;24.560;2022-12-07T08:58:42;97703.72;;;1.25;86.34
45327;BME280;31062;49.678;24.560;2022-12-07T09:01:28;97712.94;;;1.21;86.08
45327;BME280;31062;49.678;24.560;2022-12-07T09:04:14;97719.25;;;1.43;86.20
45327;BME280;31062;49.678;24.560;2022-12-07T09:07:01;97733.09;;;1.45;86.54
45327;BME280;31062;49.678;24.560;2022-12-07T09:09:47;97716.50;;;1.30;86.86
45327;BME280;31062;49.678;24.560;2022-12-07T09:12:32;97542.66;;;0.19;86.11
45327;BME280;31062;49.678;24.560;2022-12-07T09:15:18;97701.28;;;1.34;86.07
45327;BME280;31062;49.678;24.560;2022-12-07T09:18:04;97660.22;;;0.87;86.33
45327;BME280;31062;49.678;24.560;2022-12-07T09:20:51;97709.38;;;1.40;86.18
45327;BME280;31062;49.678;24.560;2022-12-07T09:23:37;97532.59;;;0.27;86.08
45327;BME280;31062;49.678;24.560;2022-12-07T09:26:22;97711.03;;;1.56;86.29
45327;BME280;31062;49.678;24.560;2022-12-07T09:29:08;97733.22;;;1.52;86.49
45327;BME280;31062;49.678;24.560;2022-12-07T09:31:54;97737.31;;;1.59;86.34
45327;BME280;31062;49.678;24.560;2022-12-07T09:34:40;97708.28;;;1.56;86.32
45327;BME280;31062;49.678;24.560;2022-12-07T09:37:25;97687.19;;;1.43;86.48
45327;BME280;31062;49.678;24.560;2022-12-07T09:40:12;97550.25;;;0.53;85.58
45327;BME280;31062;49.678;24.560;2022-12-07T09:42:58;97698.44;;;1.53;86.43
45327;BME280;31062;49.678;24.560;2022-12-07T09:45:46;97688.13;;;1.59;86.60
45327;BME280;31062;49.678;24.560;2022-12-07T09:48:36;97702.41;;;1.65;86.89
45327;BME280;31062;49.678;24.560;2022-12-07T09:51:24;97658.22;;;1.40;86.12
45327;BME280;31062;49.678;24.560;2022-12-07T09:54:22;97703.22;;;1.73;86.21
45327;BME280;31062;49.678;24.560;2022-12-07T09:57:14;97659.16;;;1.43;86.10
45327;BME280;31062;49.678;24.560;2022-12-07T10:00:09;97714.38;;;1.75;86.01
45327;BME280;31062;49.678;24.560;2022-12-07T10:03:01;97698.91;;;1.78;85.57
45327;BME280;31062;49.678;24.560;2022-12-07T10:05:50;97602.25;;;1.07;85.76
45327;BME280;31062;49.678;24.560;2022-12-07T10:08:36;97683.81;;;1.63;nan
45327;BME280;31062;49.678;24.560;2022-12-07T10:11:22;97696.72;;;1.76;85.88
45327;BME280;31062;49.678;24.560;2022-12-07T10:14:12;97693.75;;;1.74;85.84
45327;BME280;31062;49.678;24.560;2022-12-07T10:16:59;97501.03;;;0.45;85.85
45327;BME280;31062;49.678;24.560;2022-12-07T10:19:45;97686.28;;;1.75;85.63
45327;BME280;31062;49.678;24.560;2022-12-07T10:22:30;97676.75;;;1.68;85.95
45327;BME280;31062;49.678;24.560;2022-12-07T10:25:20;97706.16;;;1.75;85.47
45327;BME280;31062;49.678;24.560;2022-12-07T10:30:57;97705.63;;;1.77;85.64
45327;BME280;31062;49.678;24.560;2022-12-07T10:33:57;97722.97;;;1.79;86.04
45327;BME280;31062;49.678;24.560;2022-12-07T10:36:43;97649.25;;;1.53;86.06
45327;BME280;31062;49.678;24.560;2022-12-07T10:39:29;97633.28;;;1.44;85.65
45327;BME280;31062;49.678;24.560;2022-12-07T10:42:30;97710.59;;;1.78;86.25
45327;BME280;31062;49.678;24.560;2022-12-07T10:45:17;97706.56;;;1.79;86.08
45327;BME280;31062;49.678;24.560;2022-12-07T10:51:12;97717.50;;;1.79;85.79
45327;BME280;31062;49.678;24.560;2022-12-07T10:57:36;97684.19;;;1.81;85.92
45327;BME280;31062;49.678;24.560;2022-12-07T11:00:37;97620.50;;;1.39;85.93
45327;BME280;31062;49.678;24.560;2022-12-07T11:06:40;97684.41;;;1.83;86.25
45327;BME280;31062;49.678;24.560;2022-12-07T11:12:56;97635.59;;;1.53;85.51
45327;BME280;31062;49.678;24.560;2022-12-07T11:16:06;97637.25;;;1.56;85.82
45327;BME280;31062;49.678;24.560;2022-12-07T11:31:25;97668.69;;;1.96;85.28
45327;BME280;31062;49.678;24.560;2022-12-07T11:37:35;97686.75;;;1.99;85.16
45327;BME280;31062;49.678;24.560;2022-12-07T11:40:28;97637.94;;;1.83;85.05
45327;BME280;31062;49.678;24.560;2022-12-07T11:43:25;97684.84;;;2.08;85.10
45327;BME280;31062;49.678;24.560;2022-12-07T11:46:15;97666.63;;;2.10;85.02
45327;BME280;31062;49.678;24.560;2022-12-07T11:49:12;97505.78;;;1.05;85.07
45327;BME280;31062;49.678;24.560;2022-12-07T11:52:02;97611.94;;;1.89;84.88
45327;BME280;31062;49.678;24.560;2022-12-07T11:54:51;97528.63;;;1.28;85.31
45327;BME280;31062;49.678;24.560;2022-12-07T11:58:11;97617.66;;;1.78;84.61
45327;BME280;31062;49.678;24.560;2022-12-07T12:06:55;97643.16;;;2.15;85.08
45327;BME280;31062;49.678;24.560;2022-12-07T12:09:54;97638.75;;;2.12;84.76
45327;BME280;31062;49.678;24.560;2022-12-07T12:16:21;97685.72;;;2.23;84.85
45327;BME280;31062;49.678;24.560;2022-12-07T12:22:20;97641.38;;;2.17;84.83
45327;BME280;31062;49.678;24.560;2022-12-07T12:25:25;97637.69;;;2.15;84.76
45327;BME280;31062;49.678;24.560;2022-12-07T12:28:23;97482.09;;;1.00;84.78
45327;BME280;31062;49.678;24.560;2022-12-07T12:31:32;97574.69;;;1.45;84.75
45327;BME280;31062;49.678;24.560;2022-12-07T12:34:40;97497.63;;;1.26;84.56
45327;BME280;31062;49.678;24.560;2022-12-07T12:43:44;97642.56;;;2.29;84.43
45327;BME280;31062;49.678;24.560;2022-12-07T12:55:00;97546.31;;;1.48;84.41
45327;BME280;31062;49.678;24.560;2022-12-07T13:01:38;97643.09;;;2.28;84.33
45327;BME280;31062;49.678;24.560;2022-12-07T13:04:30;97468.44;;;1.00;84.70
45327;BME280;31062;49.678;24.560;2022-12-07T13:10:39;97646.56;;;2.28;84.62
45327;BME280;31062;49.678;24.560;2022-12-07T13:13:29;97624.50;;;2.05;84.77
45327;BME280;31062;49.678;24.560;2022-12-07T13:19:01;97464.84;;;1.05;84.53
45327;BME280;31062;49.678;24.560;2022-12-07T13:21:47;97575.38;;;1.79;84.04
45327;BME280;31062;49.678;24.560;2022-12-07T13:24:32;97650.44;;;2.33;84.76
45327;BME280;31062;49.678;24.560;2022-12-07T13:27:18;97482.56;;;1.11;84.66
45327;BME280;31062;49.678;24.560;2022-12-07T13:30:14;97653.59;;;2.37;84.87
45327;BME280;31062;49.678;24.560;2022-12-07T13:33:00;97653.59;;;2.37;84.76
45327;BME280;31062;49.678;24.560;2022-12-07T13:35:53;97657.78;;;2.38;84.65
45327;BME280;31062;49.678;24.560;2022-12-07T13:38:49;97511.25;;;1.39;84.54
45327;BME280;31062;49.678;24.560;2022-12-07T13:41:34;97477.84;;;1.12;84.76
45327;BME280;31062;49.678;24.560;2022-12-07T13:44:21;97475.19;;;1.19;84.46
45327;BME280;31062;49.678;24.560;2022-12-07T13:50:00;97477.50;;;1.15;84.69
45327;BME280;31062;49.678;24.560;2022-12-07T13:52:46;97596.84;;;1.75;84.36
45327;BME280;31062;49.678;24.560;2022-12-07T13:55:33;97667.44;;;2.39;84.19
45327;BME280;31062;49.678;24.560;2022-12-07T13:58:19;97648.56;;;2.28;84.26
45327;BME280;31062;49.678;24.560;2022-12-07T14:01:05;97456.16;;;0.93;84.22
45327;BME280;31062;49.678;24.560;2022-12-07T14:03:51;97670.38;;;2.41;84.30
45327;BME280;31062;49.678;24.560;2022-12-07T14:06:49;97647.84;;;2.07;84.25
45327;BME280;31062;49.678;24.560;2022-12-07T14:09:37;97687.47;;;2.34;84.33
45327;BME280;31062;49.678;24.560;2022-12-07T14:12:24;97633.50;;;2.14;83.90
45327;BME280;31062;49.678;24.560;2022-12-07T14:15:21;97677.34;;;2.42;84.60
45327;BME280;31062;49.678;24.560;2022-12-07T14:21:19;97526.16;;;1.38;84.34
45327;BME280;31062;49.678;24.560;2022-12-07T14:24:19;97685.94;;;2.46;84.57
45327;BME280;31062;49.678;24.560;2022-12-07T14:27:20;97701.75;;;2.40;84.46
45327;BME280;31062;49.678;24.560;2022-12-07T14:30:16;97650.84;;;2.16;84.23
45327;BME280;31062;49.678;24.560;2022-12-07T14:33:04;97678.38;;;2.39;84.11
45327;BME280;31062;49.678;24.560;2022-12-07T14:35:49;97607.00;;;1.88;84.39
45327;BME280;31062;49.678;24.560;2022-12-07T14:38:35;97693.41;;;2.45;84.45
45327;BME280;31062;49.678;24.560;2022-12-07T14:41:21;97640.28;;;1.99;84.00
45327;BME280;31062;49.678;24.560;2022-12-07T14:44:26;97505.94;;;1.20;84.00
45327;BME280;31062;49.678;24.560;2022-12-07T14:47:20;97681.34;;;2.41;83.93
45327;BME280;31062;49.678;24.560;2022-12-07T14:50:25;97515.47;;;1.27;83.76
45327;BME280;31062;49.678;24.560;2022-12-07T14:53:17;97691.63;;;2.48;83.92
45327;BME280;31062;49.678;24.560;2022-12-07T14:56:07;97521.38;;;1.31;83.39
45327;BME280;31062;49.678;24.560;2022-12-07T14:58:53;97515.31;;;1.25;83.52
45327;BME280;31062;49.678;24.560;2022-12-07T15:01:38;97734.31;;;2.51;83.77
45327;BME280;31062;49.678;24.560;2022-12-07T15:04:24;97549.91;;;1.43;83.78
45327;BME280;31062;49.678;24.560;2022-12-07T15:07:16;97717.25;;;2.37;83.71
45327;BME280;31062;49.678;24.560;2022-12-07T15:10:04;97609.50;;;1.65;83.63
45327;BME280;31062;49.678;24.560;2022-12-07T15:12:50;97583.47;;;1.51;83.68
45327;BME280;31062;49.678;24.560;2022-12-07T15:15:36;97700.63;;;2.35;83.69
45327;BME280;31062;49.678;24.560;2022-12-07T15:18:23;97719.25;;;2.37;83.90
45327;BME280;31062;49.678;24.560;2022-12-07T15:21:13;97710.59;;;2.33;83.50
45327;BME280;31062;49.678;24.560;2022-12-07T15:23:59;97708.56;;;2.26;83.89
45327;BME280;31062;49.678;24.560;2022-12-07T15:26:45;97550.38;;;1.20;83.98
45327;BME280;31062;49.678;24.560;2022-12-07T15:29:31;97710.00;;;2.27;84.30
45327;BME280;31062;49.678;24.560;2022-12-07T15:32:17;97696.78;;;2.18;84.27
45327;BME280;31062;49.678;24.560;2022-12-07T15:35:03;97741.91;;;2.24;84.16
45327;BME280;31062;49.678;24.560;2022-12-07T15:37:49;97621.47;;;1.62;83.87
45327;BME280;31062;49.678;24.560;2022-12-07T15:40:35;97663.66;;;1.87;84.01
45327;BME280;31062;49.678;24.560;2022-12-07T15:43:21;97731.66;;;2.38;84.12
45327;BME280;31062;49.678;24.560;2022-12-07T15:46:33;97583.72;;;1.40;83.98
45327;BME280;31062;49.678;24.560;2022-12-07T15:49:19;97730.97;;;2.45;84.10
45327;BME280;31062;49.678;24.560;2022-12-07T15:52:05;97665.44;;;1.85;84.17
45327;BME280;31062;49.678;24.560;2022-12-07T15:54:50;97747.81;;;2.49;83.80
45327;BME280;31062;49.678;24.560;2022-12-07T15:57:38;97772.09;;;2.53;84.05
45327;BME280;31062;49.678;24.560;2022-12-07T16:00:23;97735.91;;;2.26;83.50
45327;BME280;31062;49.678;24.560;2022-12-07T16:03:08;97740.22;;;2.55;83.55
45327;BME280;31062;49.678;24.560;2022-12-07T16:05:54;97624.72;;;1.74;82.84
45327;BME280;31062;49.678;24.560;2022-12-07T16:08:46;97627.78;;;1.70;82.71
45327;BME280;31062;49.678;24.560;2022-12-07T16:11:32;97559.59;;;1.31;83.17
45327;BME280;31062;49.678;24.560;2022-12-07T16:14:17;97572.19;;;1.34;83.17
45327;BME280;31062;49.678;24.560;2022-12-07T16:17:04;97757.03;;;2.59;83.20
45327;BME280;31062;49.678;24.560;2022-12-07T16:19:50;97611.63;;;1.59;83.44
45327;BME280;31062;49.678;24.560;2022-12-07T16:22:36;97761.41;;;2.62;83.18
45327;BME280;31062;49.678;24.560;2022-12-07T16:25:23;97730.66;;;2.49;83.13
45327;BME280;31062;49.678;24.560;2022-12-07T16:28:09;97762.00;;;2.47;82.92
45327;BME280;31062;49.678;24.560;2022-12-07T16:31:02;97712.28;;;2.36;83.25
45327;BME280;31062;49.678;24.560;2022-12-07T16:33:49;97589.25;;;1.60;82.59
45327;BME280;31062;49.678;24.560;2022-12-07T16:36:35;97661.38;;;2.12;82.19
45327;BME280;31062;49.678;24.560;2022-12-07T16:39:40;97744.75;;;2.73;82.50
45327;BME280;31062;49.678;24.560;2022-12-07T16:42:26;97732.91;;;2.58;82.70